Aktualne dane pomiarowe

Uwaga, wersja testowa! Automatyczne pobieranie danych za pomocą narzędzi lub skryptów to umożliwiających jest zabronione.

Dane meteo z obszaru Polski uzyskane na podstawie depesz SYNOP pobieranych co godzinę z NWS. Najedź myszką na symbol przedstawiony w tabeli, aby uzyskać informacje co do jego znaczenia. Prosimy pamiętać, że to testowa wersja strony, która jeszcze nie jest ukończona. Stworzono również jest krótki FAQ dotyczący korzystania z tej podstrony Anomalie temperatury w chwili obecnej odniesione są do okresu referencyjnego 1951-2016. Okres ten będzie później zmieniony na 1981-2010. Kliknij ikonę aby pobrać plik CSV. Kliknij ikonę aby wygenerować mapę synoptyczną dla danego terminu.

Wybierz Datę:    

        

Kielce-Suków (12570)

Dane terminowe dla wybranej stacji. Kliknij datę, aby otrzymać dane z tego terminu dla wszystkich stacji.

TemperaturaZachmurzenieWiatrCiśnienieOpadyPogoda
 Data t td wb tx tn tg rh  Nt Nl Cl Cm Ch ws wd g1 g2 wx mslp ppp ch 24h 12h t ww ww w1 w2  
2019-07-20 23:00:00 16.7 14.5 15.2--- 8715.0wx-wx1wx--11017.3 986.5 0.1----22----
2019-07-20 22:00:00 18.4 14.7 15.9--- 7925.0wx-wx1wx--11017.2 986.6 0.6----22----
2019-07-20 21:00:00 19.0 14.5 16.0--- 7527.0wx-wx2wx---1017.2 986.6 1.0---------
2019-07-20 20:00:00 20.7 14.8 16.8--- 6935.0wx-wx2wx--21016.8 986.4 0.8---------
2019-07-20 19:00:00 22.0 14.6 17.2--- 6330.0wx-wxwx2wx--21016.2 986.0 0.5---------
2019-07-20 18:00:00 24.7 13.9 17.9 28.4 17.2- 5129.0wxwxwxwxwx1wx--11015.5 985.6 0.0- 0.012------
2019-07-20 17:00:00 27.2 13.5 18.7--- 4340.0wxwxwxwxwx1wx--11015.3 985.6 -0.2---------
2019-07-20 16:00:00 26.9 13.6 18.6--- 4440.0wxwxwxwxwx1wx--11015.2 985.5 -0.6---------
2019-07-20 15:00:00 28.3 13.0 18.9--- 3935.0wxwxwxwxwx2wx---1015.2 985.6 -0.8---------
2019-07-20 14:00:00 27.0 13.0 18.4--- 4235.0wxwxwxwx1wx--11015.5 985.8 -0.9---------
2019-07-20 13:00:00 26.5 12.9 18.1--- 4335.0wxwxwxwx3wx--31015.9 986.1 -0.7---------
2019-07-20 12:00:00 26.4 13.5 18.4--- 4530.0wxwxwxwx2wx--21016.2 986.4 -0.6- 0.06------
2019-07-20 11:00:00 25.5 14.3 18.4--- 5030.0wxwxwxwx1wx--11016.6 986.7 -0.2---------
2019-07-20 10:00:00 24.1 14.5 18.0--- 5526.0wxwxwxwx2wx--21016.8 986.8 -0.1---------
2019-07-20 09:00:00 23.1 14.4 17.5--- 5830.0wxwxwxwx2wx--21017.2 987.0 0.2---------
2019-07-20 08:00:00 22.1 15.0 17.5--- 6430.0wxwxwxwx2wx--21017.2 986.9 0.3---------
2019-07-20 07:00:00 19.9 17.3 18.1--- 8513.0wx-wx1wx--11017.4 986.9 0.4---------
2019-07-20 06:00:00 17.2 16.2 16.5 20.3 14.8 15 949.0wx-wx1wx--11017.6 986.8 0.6 2.3 2.012wx-w1- 7.4
2019-07-20 05:00:00 16.1 15.3 15.5--- 957.0wxwxwxwx1wx---1017.5 986.6 0.8---wx---
2019-07-20 04:00:00 15.1 14.8 14.9--- 986.0wxwxwxwx1wx--11017.5 986.5 0.4---wx---
2019-07-20 03:00:00 14.9 14.6 14.7--- 984.0wx-wx1wx--11017.2 986.2 0.3---wx-w1--
2019-07-20 02:00:00 15.1 14.8 14.9--- 984.0wx-wx0---01016.8 985.8 0.0---wx---
2019-07-20 01:00:00 15.0 14.4 14.5--- 964.0wxwxwxwx1wx--11017.1 986.1 0.4---wx---
2019-07-20 00:00:00 15.2 13.9 14.3--- 9211.0wx-wx1wx--11016.9 985.9 0.4- 0.16wx-w1--
2019-07-19 23:00:00 15.9 13.4 14.2--- 8518.0wxwxwxwx1wx---1016.7 985.8 0.6---wx-w1--
2019-07-19 22:00:00 16.0 13.7 14.4--- 8614.0wxwxwxwx1wx--11016.6 985.7 0.6---wx---
2019-07-19 21:00:00 16.7 13.2 14.3--- 8014.0wx-wxwx1wx--11016.3 985.5 0.8---------
2019-07-19 20:00:00 17.4 13.5 14.8--- 7815.0wx-wx1wx--11015.9 985.2 0.6---------
2019-07-19 19:00:00 19.1 12.8 15.1--- 6725.0wx-wx1wx--11015.6 985.1 0.3---------
2019-07-19 18:00:00 20.3 13.3 15.8 27.4 17.5- 6425.0wx-wxwx1wx-1011015.1 984.7 0.7- 0.012------
2019-07-19 17:00:00 21.2 12.9 16.0--- 5940.0wxwxwxwx2wx--21014.9 984.6 0.7---------
2019-07-19 16:00:00 22.9 11.9 16.2--- 5040.0wxwxwxwxwx3wx-1031014.9 984.8 1.0---------
2019-07-19 15:00:00 25.9 10.1 16.6--- 3735.0wxwxwxwxwx3wx--31013.8 984.0 0.1---------
2019-07-19 14:00:00 24.6 11.5 16.7--- 4430.0wxwxwxwx1wx--11013.8 983.9 -0.3---------
2019-07-19 13:00:00 25.8 8.3 15.8--- 3335.0wxwxwxwx1wx--11013.6 983.8 -0.7---------
2019-07-19 12:00:00 27.3 9.2 16.8--- 3235.0wxwxwxwxwx3wx--31013.5 983.9 -0.6- 0.06------
2019-07-19 11:00:00 26.2 8.7 16.1--- 3340.0wxwxwxwxwx2wx--21014.0 984.2 -0.5---------
2019-07-19 10:00:00 26.1 9.0 16.2--- 3440.0wxwxwxwxwx2wx--21014.3 984.5 -0.4---------
2019-07-19 09:00:00 24.4 8.8 15.4--- 3730.0wxwxwxwxwx2wx--21014.4 984.5 -0.2---------
2019-07-19 08:00:00 23.9 9.8 15.6--- 4135.0wxwxwxwxwx3wx--31014.7 984.7 0.1---------
2019-07-19 07:00:00 20.5 10.9 14.7--- 5430.0wxwxwxwxwx1wx--11015.3 984.9 0.5---------
2019-07-19 06:00:00 17.6 10.0 13.0 21.0 8.7 7 6130.0wxwxwxwxwx1wx--11015.4 984.7 0.3- 0.012-22--- 10.7
2019-07-19 05:00:00 13.3 10.3 11.3--- 8223.0wx-wx0---01015.7 984.6 0.3----22----
2019-07-19 04:00:00 9.9 9.0 9.2--- 9413.0wx-wx0---01015.9 984.4 0.1----22----
2019-07-19 03:00:00 9.0 8.1 8.3--- 9412.0wx-wx1wx--11016.0 984.4 0.2----22----
2019-07-19 02:00:00 8.8 8.0 8.2--- 9511.0wx-wx1wx--11015.9 984.3 0.1----22----
2019-07-19 01:00:00 9.4 8.2 8.5--- 9212.0wx-wx1wx--11015.9 984.3 0.3----22----
2019-07-19 00:00:00 10.4 8.8 9.3--- 9013.0wx-wx1wx--11015.6 984.2 0.3- 0.06-22----
1.8 ms

 

Print Friendly, PDF & Email